createdAt,value
2022-12-31T00:01:46.570Z,99.90
2022-12-31T00:04:13.373Z,99.90
2022-12-31T00:06:40.235Z,99.90
2022-12-31T00:09:08.973Z,99.90
2022-12-31T00:11:36.508Z,99.90
2022-12-31T00:14:03.590Z,99.90
2022-12-31T00:16:34.193Z,99.90
2022-12-31T00:19:01.218Z,99.90
2022-12-31T00:21:32.670Z,99.90
2022-12-31T00:23:59.572Z,99.90
2022-12-31T00:26:30.011Z,99.90
2022-12-31T00:28:59.092Z,99.90
2022-12-31T00:31:30.276Z,99.90
2022-12-31T00:33:58.342Z,99.90
2022-12-31T00:36:29.453Z,99.90
2022-12-31T00:38:57.832Z,99.90
2022-12-31T00:41:25.905Z,99.90
2022-12-31T00:43:53.204Z,99.90
2022-12-31T00:46:20.107Z,99.90
2022-12-31T00:48:47.098Z,99.90
2022-12-31T00:51:16.682Z,99.90
2022-12-31T00:53:44.122Z,99.90
2022-12-31T00:56:13.915Z,99.90
2022-12-31T00:58:41.749Z,99.90
2022-12-31T01:01:30.728Z,99.90
2022-12-31T01:04:14.550Z,99.90
2022-12-31T01:06:42.495Z,99.90
2022-12-31T01:09:11.119Z,99.90
2022-12-31T01:11:37.919Z,99.90
2022-12-31T01:14:10.717Z,99.90
2022-12-31T01:16:42.845Z,99.90
2022-12-31T01:19:12.587Z,99.90
2022-12-31T01:21:41.407Z,99.90
2022-12-31T01:24:10.428Z,99.90
2022-12-31T01:26:37.947Z,99.90
2022-12-31T01:29:06.543Z,99.90
2022-12-31T01:31:34.386Z,99.90
2022-12-31T01:34:01.612Z,99.90
2022-12-31T01:36:31.789Z,99.90
2022-12-31T01:39:00.634Z,99.90
2022-12-31T01:41:35.335Z,99.90
2022-12-31T01:44:14.139Z,99.90
2022-12-31T01:46:51.611Z,99.90
2022-12-31T01:49:36.571Z,99.90
2022-12-31T01:52:22.487Z,99.90
2022-12-31T01:54:55.570Z,99.90
2022-12-31T01:57:25.321Z,99.90
2022-12-31T01:59:54.059Z,99.90
2022-12-31T02:02:20.893Z,99.90
2022-12-31T02:04:50.698Z,99.90
2022-12-31T02:07:17.570Z,99.90
2022-12-31T02:09:44.483Z,99.90
2022-12-31T02:12:11.554Z,99.90
2022-12-31T02:14:42.724Z,99.90
2022-12-31T02:17:22.596Z,99.90
2022-12-31T02:20:21.359Z,99.90
2022-12-31T02:23:22.088Z,99.90
2022-12-31T02:26:26.463Z,99.90
2022-12-31T02:29:21.039Z,99.90
2022-12-31T02:31:57.797Z,99.90
2022-12-31T02:34:57.475Z,99.90
2022-12-31T02:37:27.293Z,99.90
2022-12-31T02:39:54.480Z,99.90
2022-12-31T02:42:21.209Z,99.90
2022-12-31T02:44:47.934Z,99.90
2022-12-31T02:47:26.031Z,99.90
2022-12-31T02:50:06.396Z,99.90
2022-12-31T02:53:00.633Z,99.90
2022-12-31T02:55:42.154Z,99.90
2022-12-31T02:58:15.232Z,99.90
2022-12-31T03:01:07.891Z,99.90
2022-12-31T03:03:36.415Z,99.90
2022-12-31T03:06:04.429Z,99.90
2022-12-31T03:08:31.376Z,99.90
2022-12-31T03:10:58.083Z,99.90
2022-12-31T03:13:25.075Z,99.90
2022-12-31T03:15:51.977Z,99.90
2022-12-31T03:18:39.465Z,99.90
2022-12-31T03:21:45.072Z,99.90
2022-12-31T03:24:30.496Z,99.90
2022-12-31T03:26:57.220Z,99.90
2022-12-31T03:29:23.987Z,99.90
2022-12-31T03:31:50.781Z,99.90
2022-12-31T03:34:17.675Z,99.90
2022-12-31T03:36:44.605Z,99.90
2022-12-31T03:39:11.324Z,99.90
2022-12-31T03:41:38.417Z,99.90
2022-12-31T03:44:05.487Z,99.90
2022-12-31T03:46:32.276Z,99.90
2022-12-31T03:48:59.050Z,99.90
2022-12-31T03:51:25.872Z,99.90
2022-12-31T03:53:52.528Z,99.90
2022-12-31T03:56:19.586Z,99.90
2022-12-31T03:58:46.240Z,99.90
2022-12-31T04:01:13.215Z,99.90
2022-12-31T04:03:39.978Z,99.90
2022-12-31T04:06:06.824Z,99.90
2022-12-31T04:08:33.606Z,99.90
2022-12-31T04:11:00.299Z,99.90
2022-12-31T04:13:27.082Z,99.90
2022-12-31T04:15:53.917Z,99.90
2022-12-31T04:18:20.765Z,99.90
2022-12-31T04:20:47.541Z,99.90
2022-12-31T04:23:14.209Z,99.90
2022-12-31T04:25:40.891Z,99.90
2022-12-31T04:28:07.645Z,99.90
2022-12-31T04:30:34.405Z,99.90
2022-12-31T04:33:01.148Z,99.90
2022-12-31T04:35:27.857Z,99.90
2022-12-31T04:37:54.555Z,99.90
2022-12-31T04:40:21.281Z,99.90
2022-12-31T04:42:47.981Z,99.90
2022-12-31T04:45:14.786Z,99.90
2022-12-31T04:47:41.520Z,99.90
2022-12-31T04:50:08.390Z,99.90
2022-12-31T04:52:42.117Z,99.90
2022-12-31T04:55:10.005Z,99.90
2022-12-31T04:57:36.784Z,99.90
2022-12-31T05:00:04.003Z,99.90
2022-12-31T05:02:31.133Z,99.90
2022-12-31T05:04:58.342Z,99.90
2022-12-31T05:07:25.329Z,99.90
2022-12-31T05:09:52.072Z,99.90
2022-12-31T05:12:19.067Z,99.90
2022-12-31T05:14:45.879Z,99.90
2022-12-31T05:17:12.695Z,99.90
2022-12-31T05:19:39.419Z,99.90
2022-12-31T05:22:24.845Z,99.90
2022-12-31T05:24:52.363Z,99.90
2022-12-31T05:27:19.041Z,99.90
2022-12-31T05:29:45.723Z,99.90
2022-12-31T05:32:12.497Z,99.90
2022-12-31T05:34:39.231Z,99.90
2022-12-31T05:37:05.925Z,99.90
2022-12-31T05:39:32.659Z,99.90
2022-12-31T05:41:59.363Z,99.90
2022-12-31T05:44:26.085Z,99.90
2022-12-31T05:46:52.844Z,99.90
2022-12-31T05:49:19.580Z,99.90
2022-12-31T05:51:46.403Z,99.90
2022-12-31T05:54:13.130Z,99.90
2022-12-31T05:56:39.842Z,99.90
2022-12-31T05:59:06.549Z,99.90
2022-12-31T06:01:33.312Z,99.90
2022-12-31T06:04:00.718Z,99.90
2022-12-31T06:06:27.691Z,99.90
2022-12-31T06:08:54.433Z,99.90
2022-12-31T06:11:21.325Z,99.90
2022-12-31T06:13:48.079Z,99.90
2022-12-31T06:16:14.890Z,99.90
2022-12-31T06:18:41.767Z,99.90
2022-12-31T06:21:08.849Z,99.90
2022-12-31T06:23:35.549Z,99.90
2022-12-31T06:26:05.903Z,99.90
2022-12-31T06:28:33.021Z,99.90
2022-12-31T06:31:08.501Z,99.90
2022-12-31T06:33:35.484Z,99.90
2022-12-31T06:36:04.561Z,99.90
2022-12-31T06:38:33.396Z,99.90
2022-12-31T06:41:04.664Z,99.90
2022-12-31T06:43:31.504Z,99.90
2022-12-31T06:46:05.048Z,99.90
2022-12-31T06:48:32.360Z,99.90
2022-12-31T06:51:09.566Z,99.90
2022-12-31T06:53:40.549Z,99.90
2022-12-31T06:56:33.825Z,99.90
2022-12-31T06:59:02.334Z,99.90
2022-12-31T07:01:49.295Z,99.90
2022-12-31T07:04:27.793Z,99.90
2022-12-31T07:07:21.132Z,99.90
2022-12-31T07:10:21.552Z,99.90
2022-12-31T07:13:05.506Z,99.90
2022-12-31T07:15:50.835Z,99.90
2022-12-31T07:18:36.742Z,99.90
2022-12-31T07:21:04.050Z,99.90
2022-12-31T07:23:31.011Z,99.90
2022-12-31T07:26:09.695Z,99.90
2022-12-31T07:28:42.350Z,99.90
2022-12-31T07:31:32.838Z,99.90
2022-12-31T07:34:30.748Z,99.90
2022-12-31T07:37:38.936Z,99.90
2022-12-31T07:40:46.788Z,99.90
2022-12-31T07:43:34.727Z,99.90
2022-12-31T07:46:07.487Z,99.90
2022-12-31T07:48:34.461Z,99.90
2022-12-31T07:51:01.515Z,99.90
2022-12-31T07:53:28.571Z,99.90
2022-12-31T07:55:59.709Z,99.90
2022-12-31T07:58:39.027Z,99.90
2022-12-31T08:01:14.397Z,99.90
2022-12-31T08:03:47.784Z,99.90
2022-12-31T08:06:19.517Z,99.90
2022-12-31T08:09:24.767Z,99.90
2022-12-31T08:12:01.119Z,99.90
2022-12-31T08:14:29.409Z,99.90
2022-12-31T08:16:57.499Z,99.90
2022-12-31T08:19:33.470Z,99.90
2022-12-31T08:22:16.144Z,99.90
2022-12-31T08:25:08.225Z,99.90
2022-12-31T08:27:56.523Z,99.50
2022-12-31T08:30:25.417Z,99.30
2022-12-31T08:33:23.839Z,98.90
2022-12-31T08:36:03.441Z,98.30
2022-12-31T08:38:44.527Z,98.10
2022-12-31T08:41:30.904Z,98.00
2022-12-31T08:44:09.625Z,98.00
2022-12-31T08:47:03.237Z,98.20
2022-12-31T08:49:34.005Z,97.80
2022-12-31T08:52:02.414Z,97.90
2022-12-31T08:54:29.510Z,97.90
2022-12-31T08:57:24.299Z,98.20
2022-12-31T09:00:03.415Z,97.70
2022-12-31T09:02:52.158Z,97.90
2022-12-31T09:05:53.136Z,97.60
2022-12-31T09:08:32.647Z,97.20
2022-12-31T09:11:45.910Z,97.50
2022-12-31T09:14:40.734Z,97.20
2022-12-31T09:17:19.331Z,97.40
2022-12-31T09:19:46.215Z,97.20
2022-12-31T09:22:13.126Z,97.20
2022-12-31T09:24:40.144Z,97.20
2022-12-31T09:27:27.759Z,96.80
2022-12-31T09:30:04.749Z,96.40
2022-12-31T09:32:46.506Z,96.30
2022-12-31T09:35:13.296Z,96.30
2022-12-31T09:37:47.584Z,96.20
2022-12-31T09:40:53.675Z,96.00
2022-12-31T09:43:38.901Z,95.60
2022-12-31T09:46:24.548Z,95.70
2022-12-31T09:49:06.359Z,95.70
2022-12-31T09:51:38.944Z,95.90
2022-12-31T09:54:27.427Z,96.00
2022-12-31T09:57:19.134Z,95.70
2022-12-31T10:00:17.509Z,95.80
2022-12-31T10:02:45.159Z,95.50
2022-12-31T10:05:49.227Z,95.00
2022-12-31T10:08:29.849Z,94.70
2022-12-31T10:11:02.985Z,94.50
2022-12-31T10:13:39.347Z,94.80
2022-12-31T10:16:14.677Z,93.90
2022-12-31T10:19:06.307Z,93.90
2022-12-31T10:21:48.632Z,93.70
2022-12-31T10:24:34.460Z,92.70
2022-12-31T10:27:38.995Z,92.40
2022-12-31T10:30:21.312Z,91.90
2022-12-31T10:33:08.736Z,91.60
2022-12-31T10:36:25.961Z,90.50
2022-12-31T10:39:14.497Z,90.00
2022-12-31T10:41:50.241Z,90.00
2022-12-31T10:44:54.317Z,89.90
2022-12-31T10:47:38.310Z,90.10
2022-12-31T10:50:38.884Z,90.50
2022-12-31T10:53:37.251Z,90.50
2022-12-31T10:56:41.641Z,90.80
2022-12-31T10:59:27.228Z,90.20
2022-12-31T11:02:12.719Z,90.80
2022-12-31T11:05:10.383Z,90.20
2022-12-31T11:07:42.660Z,90.60
2022-12-31T11:10:31.111Z,90.40
2022-12-31T11:13:56.475Z,90.30
2022-12-31T11:16:33.752Z,90.20
2022-12-31T11:19:06.488Z,88.80
2022-12-31T11:21:46.818Z,88.00
2022-12-31T11:24:44.159Z,85.00
2022-12-31T11:27:25.934Z,84.00
2022-12-31T11:30:18.798Z,83.40
2022-12-31T11:33:11.156Z,83.10
2022-12-31T11:36:19.746Z,79.80
2022-12-31T11:39:13.075Z,78.00
2022-12-31T11:41:49.546Z,78.70
2022-12-31T11:44:51.899Z,77.00
2022-12-31T11:48:28.656Z,75.00
2022-12-31T11:50:50.022Z,76.10
2022-12-31T11:53:31.712Z,76.70
2022-12-31T11:56:09.921Z,78.20
2022-12-31T11:58:36.745Z,79.10
2022-12-31T12:01:20.705Z,80.20
2022-12-31T12:03:47.926Z,81.40
2022-12-31T12:06:18.226Z,82.20
2022-12-31T12:08:46.641Z,82.40
2022-12-31T12:11:27.330Z,82.40
2022-12-31T12:13:54.136Z,82.70
2022-12-31T12:16:23.809Z,82.80
2022-12-31T12:19:05.809Z,83.50
2022-12-31T12:21:33.474Z,83.40
2022-12-31T12:24:06.021Z,84.00
2022-12-31T12:26:37.643Z,83.90
2022-12-31T12:29:18.054Z,83.90
2022-12-31T12:31:59.556Z,84.00
2022-12-31T12:34:44.448Z,82.70
2022-12-31T12:37:27.981Z,82.30
2022-12-31T12:40:05.656Z,82.40
2022-12-31T12:42:33.059Z,82.10
2022-12-31T12:45:07.154Z,81.50
2022-12-31T12:47:34.820Z,81.80
2022-12-31T12:50:01.980Z,82.30
2022-12-31T12:52:47.779Z,84.10
2022-12-31T12:55:27.628Z,87.90
2022-12-31T12:57:57.499Z,88.40
2022-12-31T13:00:49.943Z,89.80
2022-12-31T13:03:34.735Z,88.90
2022-12-31T13:06:20.020Z,89.90
2022-12-31T13:09:31.399Z,90.10
2022-12-31T13:12:07.739Z,88.20
2022-12-31T13:15:02.747Z,87.40
2022-12-31T13:17:56.138Z,85.20
2022-12-31T13:20:32.986Z,85.30
2022-12-31T13:23:18.407Z,85.10
2022-12-31T13:26:14.188Z,86.10
2022-12-31T13:28:43.405Z,86.60
2022-12-31T13:31:15.159Z,90.10
2022-12-31T13:33:49.622Z,93.90
2022-12-31T13:36:23.358Z,94.20
2022-12-31T13:38:54.047Z,94.70
2022-12-31T13:41:41.732Z,94.70
2022-12-31T13:44:34.954Z,96.00
2022-12-31T13:47:54.554Z,97.60
2022-12-31T13:50:32.712Z,99.50
2022-12-31T13:53:33.006Z,99.50
2022-12-31T13:56:05.953Z,99.20
2022-12-31T13:58:42.070Z,99.90
2022-12-31T14:01:25.394Z,99.90
2022-12-31T14:04:14.561Z,99.90
2022-12-31T14:07:32.542Z,99.90
2022-12-31T14:10:02.229Z,99.90
2022-12-31T14:12:55.360Z,99.90
2022-12-31T14:15:37.422Z,99.90
2022-12-31T14:18:19.442Z,99.90
2022-12-31T14:20:56.799Z,99.90
2022-12-31T14:23:49.711Z,99.90
2022-12-31T14:26:41.880Z,99.90
2022-12-31T14:29:11.352Z,99.90
2022-12-31T14:31:51.692Z,99.90
2022-12-31T14:34:55.757Z,99.90
2022-12-31T14:37:22.427Z,99.90
2022-12-31T14:40:02.647Z,99.90
2022-12-31T14:42:51.590Z,99.90
2022-12-31T14:45:51.790Z,99.90
2022-12-31T14:48:44.434Z,99.90
2022-12-31T14:51:12.453Z,99.90
2022-12-31T14:53:39.247Z,99.90
2022-12-31T14:56:25.349Z,99.90
2022-12-31T14:59:01.483Z,99.90
2022-12-31T15:01:29.230Z,99.90
2022-12-31T15:03:58.173Z,99.90
2022-12-31T15:06:27.734Z,99.90
2022-12-31T15:09:18.563Z,99.90
2022-12-31T15:12:10.581Z,99.80
2022-12-31T15:14:58.818Z,99.90
2022-12-31T15:17:41.113Z,99.90
2022-12-31T15:20:23.155Z,99.60
2022-12-31T15:22:51.828Z,98.90
2022-12-31T15:25:35.210Z,98.40
2022-12-31T15:28:08.580Z,98.00
2022-12-31T15:30:35.413Z,97.30
2022-12-31T15:33:05.943Z,97.30
2022-12-31T15:35:49.220Z,97.40
2022-12-31T15:38:15.874Z,96.30
2022-12-31T15:40:50.701Z,96.90
2022-12-31T15:43:43.881Z,96.60
2022-12-31T15:46:20.122Z,96.40
2022-12-31T15:48:53.873Z,96.20
2022-12-31T15:51:28.779Z,96.10
2022-12-31T15:53:58.222Z,96.70
2022-12-31T15:56:49.137Z,96.80
2022-12-31T15:59:27.781Z,96.60
2022-12-31T16:01:57.722Z,97.60
2022-12-31T16:04:33.493Z,97.90
2022-12-31T16:07:03.934Z,96.80
2022-12-31T16:09:34.213Z,97.30
2022-12-31T16:12:03.715Z,97.10
2022-12-31T16:14:39.375Z,96.40
2022-12-31T16:17:07.020Z,97.00
2022-12-31T16:19:43.734Z,97.20
2022-12-31T16:22:26.905Z,96.50
2022-12-31T16:25:29.539Z,96.60
2022-12-31T16:27:49.777Z,96.50
2022-12-31T16:30:21.479Z,96.50
2022-12-31T16:32:50.601Z,96.10
2022-12-31T16:35:32.908Z,96.50
2022-12-31T16:38:12.181Z,96.30
2022-12-31T16:40:40.493Z,95.90
2022-12-31T16:43:31.155Z,96.00
2022-12-31T16:46:08.554Z,95.20
2022-12-31T16:48:35.439Z,95.20
2022-12-31T16:51:03.140Z,94.90
2022-12-31T16:53:34.161Z,95.00
2022-12-31T16:56:05.335Z,94.80
2022-12-31T16:58:36.861Z,94.90
2022-12-31T17:01:27.645Z,94.90
2022-12-31T17:04:02.275Z,94.00
2022-12-31T17:06:32.197Z,93.70
2022-12-31T17:09:09.957Z,93.40
2022-12-31T17:11:43.883Z,93.70
2022-12-31T17:14:13.853Z,93.70
2022-12-31T17:17:07.880Z,92.30
2022-12-31T17:19:51.803Z,92.00
2022-12-31T17:22:36.911Z,92.00
2022-12-31T17:25:21.895Z,92.20
2022-12-31T17:28:02.228Z,91.30
2022-12-31T17:30:35.086Z,91.90
2022-12-31T17:33:09.198Z,91.40
2022-12-31T17:35:42.207Z,90.30
2022-12-31T17:38:20.928Z,91.50
2022-12-31T17:41:05.383Z,90.30
2022-12-31T17:43:35.506Z,90.30
2022-12-31T17:46:08.971Z,88.20
2022-12-31T17:48:36.939Z,90.20
2022-12-31T17:51:03.826Z,88.30
2022-12-31T17:53:30.554Z,87.30
2022-12-31T17:56:02.481Z,84.90
2022-12-31T17:58:31.954Z,85.60
2022-12-31T18:00:59.745Z,82.40
2022-12-31T18:03:26.625Z,81.60
2022-12-31T18:05:53.409Z,78.80
2022-12-31T18:08:20.081Z,77.80
2022-12-31T18:10:47.024Z,77.40
2022-12-31T18:13:17.856Z,73.70
2022-12-31T18:15:44.875Z,75.20
2022-12-31T18:18:25.567Z,75.10
2022-12-31T18:21:17.978Z,75.60
2022-12-31T18:23:47.964Z,75.50
2022-12-31T18:26:17.586Z,73.20
2022-12-31T18:28:44.598Z,70.80
2022-12-31T18:31:22.142Z,71.20
2022-12-31T18:33:50.868Z,70.30
2022-12-31T18:36:19.101Z,67.10
2022-12-31T18:38:45.964Z,63.90
2022-12-31T18:41:20.337Z,62.80
2022-12-31T18:43:47.961Z,61.60
2022-12-31T18:46:17.093Z,61.10
2022-12-31T18:48:44.424Z,64.30
2022-12-31T18:51:29.313Z,62.00
2022-12-31T18:53:59.215Z,60.30
2022-12-31T18:56:25.993Z,58.80
2022-12-31T18:58:52.757Z,58.00
2022-12-31T19:01:33.114Z,56.30
2022-12-31T19:04:10.589Z,56.60
2022-12-31T19:06:37.455Z,55.50
2022-12-31T19:09:13.174Z,54.50
2022-12-31T19:11:51.263Z,53.90
2022-12-31T19:14:24.211Z,52.10
2022-12-31T19:16:53.392Z,50.90
2022-12-31T19:19:20.953Z,51.50
2022-12-31T19:21:47.812Z,51.00
2022-12-31T19:24:23.648Z,50.50
2022-12-31T19:26:50.691Z,48.90
2022-12-31T19:29:22.325Z,47.10
2022-12-31T19:31:49.450Z,46.10
2022-12-31T19:34:16.429Z,46.40
2022-12-31T19:36:44.402Z,46.30
2022-12-31T19:39:19.598Z,45.40
2022-12-31T19:41:51.430Z,44.50
2022-12-31T19:44:21.420Z,45.20
2022-12-31T19:46:49.234Z,43.90
2022-12-31T19:49:16.316Z,43.40
2022-12-31T19:51:43.210Z,43.60
2022-12-31T19:54:12.505Z,42.90
2022-12-31T19:56:39.467Z,41.70
2022-12-31T19:59:07.655Z,41.30
2022-12-31T20:01:34.524Z,42.10
2022-12-31T20:04:01.362Z,41.70
2022-12-31T20:06:28.125Z,42.10
2022-12-31T20:08:54.860Z,42.40
2022-12-31T20:11:23.275Z,41.60
2022-12-31T20:13:52.559Z,41.40
2022-12-31T20:16:22.760Z,41.50
2022-12-31T20:18:50.569Z,40.60
2022-12-31T20:21:23.019Z,39.80
2022-12-31T20:23:51.599Z,39.20
2022-12-31T20:26:19.686Z,39.20
2022-12-31T20:28:46.823Z,38.60
2022-12-31T20:31:19.554Z,38.10
2022-12-31T20:33:46.415Z,38.10
2022-12-31T20:36:15.621Z,37.60
2022-12-31T20:38:42.468Z,37.60
2022-12-31T20:41:12.712Z,37.20
2022-12-31T20:43:39.916Z,36.60
2022-12-31T20:46:16.161Z,37.20
2022-12-31T20:48:44.318Z,36.20
2022-12-31T20:51:11.814Z,36.10
2022-12-31T20:53:38.485Z,35.60
2022-12-31T20:56:07.462Z,35.10
2022-12-31T20:58:34.718Z,35.00
2022-12-31T21:01:04.955Z,35.00
2022-12-31T21:06:19.494Z,34.60
2022-12-31T21:08:46.797Z,34.90
2022-12-31T21:11:32.853Z,34.40
2022-12-31T21:14:00.663Z,34.70
2022-12-31T21:16:27.898Z,34.90
2022-12-31T21:18:55.250Z,35.10
2022-12-31T21:21:22.439Z,34.80
2022-12-31T21:23:49.503Z,35.50
2022-12-31T21:26:16.749Z,36.10
2022-12-31T21:28:43.539Z,35.60
2022-12-31T21:31:12.387Z,36.30
2022-12-31T21:33:39.197Z,36.70
2022-12-31T21:36:06.091Z,36.90
2022-12-31T21:38:35.430Z,37.50
2022-12-31T21:41:04.081Z,37.40
2022-12-31T21:43:31.287Z,37.60
2022-12-31T21:46:03.485Z,38.00
2022-12-31T21:48:30.541Z,38.40
2022-12-31T21:51:13.154Z,38.30
2022-12-31T21:53:40.290Z,38.90
2022-12-31T21:56:08.490Z,38.90
2022-12-31T21:58:44.148Z,39.20
2022-12-31T22:01:36.535Z,38.90
2022-12-31T22:04:03.582Z,39.10
2022-12-31T22:06:30.901Z,39.50
2022-12-31T22:08:57.961Z,39.00
2022-12-31T22:11:27.474Z,39.20
2022-12-31T22:13:55.329Z,39.10
2022-12-31T22:16:22.702Z,39.00
2022-12-31T22:18:49.910Z,39.20
2022-12-31T22:21:20.669Z,39.00
2022-12-31T22:23:53.642Z,38.90
2022-12-31T22:26:26.087Z,38.50
2022-12-31T22:28:54.522Z,38.30
2022-12-31T22:31:24.532Z,38.00
2022-12-31T22:33:51.916Z,37.10
2022-12-31T22:36:21.056Z,36.80
2022-12-31T22:38:49.427Z,35.90
2022-12-31T22:41:20.721Z,36.00
2022-12-31T22:43:58.683Z,35.60
2022-12-31T22:46:29.738Z,35.40
2022-12-31T22:49:00.529Z,35.20
2022-12-31T22:51:57.254Z,35.40
2022-12-31T22:54:15.244Z,35.40
2022-12-31T22:56:42.116Z,35.00
2022-12-31T22:59:09.418Z,35.10
2022-12-31T23:01:36.297Z,34.80
2022-12-31T23:04:03.165Z,34.80
2022-12-31T23:06:29.978Z,35.00
2022-12-31T23:09:15.039Z,34.80
2022-12-31T23:11:43.231Z,34.60
2022-12-31T23:14:34.765Z,34.30
2022-12-31T23:17:29.801Z,33.70
2022-12-31T23:20:17.883Z,34.00
2022-12-31T23:23:03.954Z,33.80
2022-12-31T23:25:55.397Z,33.80
2022-12-31T23:28:24.468Z,33.10
2022-12-31T23:30:51.952Z,33.00
2022-12-31T23:33:24.273Z,32.70
2022-12-31T23:35:51.067Z,32.60
2022-12-31T23:38:18.842Z,32.10
2022-12-31T23:40:45.629Z,32.00
2022-12-31T23:43:21.393Z,32.10
2022-12-31T23:45:50.347Z,32.10
2022-12-31T23:48:17.156Z,32.10
2022-12-31T23:50:49.177Z,32.00
2022-12-31T23:53:19.395Z,32.10
2022-12-31T23:55:46.136Z,32.20
2022-12-31T23:58:12.877Z,32.40
